createdAt,value
2024-02-17T00:02:32.722Z,57.00
2024-02-17T00:05:36.647Z,56.14
2024-02-17T00:08:42.655Z,56.12
2024-02-17T00:11:46.502Z,56.08
2024-02-17T00:14:51.941Z,55.30
2024-02-17T00:17:55.916Z,55.70
2024-02-17T00:21:06.803Z,55.77
2024-02-17T00:24:12.423Z,55.23
2024-02-17T00:27:16.672Z,54.68
2024-02-17T00:30:22.456Z,54.51
2024-02-17T00:33:29.406Z,54.28
2024-02-17T00:36:51.792Z,54.64
2024-02-17T00:39:59.468Z,55.55
2024-02-17T00:43:03.456Z,55.20
2024-02-17T00:46:08.602Z,56.52
2024-02-17T00:49:14.048Z,56.56
2024-02-17T00:52:22.606Z,57.08
2024-02-17T00:55:28.642Z,56.72
2024-02-17T00:58:34.357Z,55.14
2024-02-17T01:01:40.364Z,55.70
2024-02-17T01:04:45.274Z,55.40
2024-02-17T01:07:49.303Z,55.73
2024-02-17T01:10:56.029Z,55.45
2024-02-17T01:14:00.463Z,55.95
2024-02-17T01:17:05.123Z,55.94
2024-02-17T01:20:10.251Z,56.80
2024-02-17T01:23:14.540Z,55.98
2024-02-17T01:26:20.053Z,56.04
2024-02-17T01:29:33.221Z,56.11
2024-02-17T01:32:37.260Z,56.09
2024-02-17T01:35:41.692Z,56.37
2024-02-17T01:38:47.240Z,56.55
2024-02-17T01:41:53.316Z,55.76
2024-02-17T01:44:57.668Z,55.68
2024-02-17T01:48:03.152Z,55.39
2024-02-17T01:51:14.286Z,54.89
2024-02-17T01:54:20.260Z,54.83
2024-02-17T01:57:26.220Z,55.02
2024-02-17T02:00:31.717Z,54.38
2024-02-17T02:03:37.303Z,54.43
2024-02-17T02:06:42.203Z,53.95
2024-02-17T02:09:49.672Z,54.04
2024-02-17T02:12:56.340Z,56.06
2024-02-17T02:16:00.957Z,55.79
2024-02-17T02:19:05.728Z,56.05
2024-02-17T02:22:09.894Z,55.84
2024-02-17T02:25:26.712Z,55.22
2024-02-17T02:28:33.209Z,54.71
2024-02-17T02:31:37.515Z,54.51
2024-02-17T02:34:42.074Z,54.64
2024-02-17T02:37:46.355Z,55.09
2024-02-17T02:40:50.265Z,54.92
2024-02-17T02:43:56.114Z,55.34
2024-02-17T02:47:00.351Z,56.15
2024-02-17T02:50:05.448Z,54.95
2024-02-17T02:53:09.968Z,54.51
2024-02-17T02:56:16.097Z,54.47
2024-02-17T02:59:22.032Z,55.22
2024-02-17T03:02:26.455Z,56.12
2024-02-17T03:05:30.527Z,56.52
2024-02-17T03:08:35.165Z,56.52
2024-02-17T03:11:39.486Z,56.44
2024-02-17T03:14:48.741Z,56.09
2024-02-17T03:17:53.653Z,55.49
2024-02-17T03:20:58.464Z,54.96
2024-02-17T03:24:02.467Z,54.63
2024-02-17T03:27:07.280Z,54.76
2024-02-17T03:30:13.252Z,55.89
2024-02-17T03:33:18.449Z,56.12
2024-02-17T03:36:22.821Z,55.70
2024-02-17T03:39:27.478Z,55.03
2024-02-17T03:42:31.456Z,54.77
2024-02-17T03:45:37.696Z,54.88
2024-02-17T03:48:41.954Z,54.32
2024-02-17T03:51:47.112Z,53.96
2024-02-17T03:54:51.223Z,54.20
2024-02-17T03:57:57.315Z,54.09
2024-02-17T04:01:03.144Z,55.31
2024-02-17T04:04:07.675Z,53.89
2024-02-17T04:07:12.612Z,53.74
2024-02-17T04:10:19.737Z,53.56
2024-02-17T04:13:23.898Z,53.93
2024-02-17T04:16:29.738Z,53.77
2024-02-17T04:19:33.882Z,54.14
2024-02-17T04:22:38.555Z,53.88
2024-02-17T04:25:43.611Z,53.57
2024-02-17T04:29:06.800Z,54.62
2024-02-17T04:32:15.926Z,53.51
2024-02-17T04:35:20.651Z,54.46
2024-02-17T04:38:25.022Z,56.11
2024-02-17T04:41:29.439Z,54.96
2024-02-17T04:44:33.492Z,54.91
2024-02-17T04:47:39.933Z,55.34
2024-02-17T04:50:44.095Z,54.49
2024-02-17T04:53:49.408Z,54.55
2024-02-17T04:56:53.316Z,53.82
2024-02-17T04:59:57.568Z,54.04
2024-02-17T05:03:04.438Z,54.93
2024-02-17T05:06:10.167Z,53.76
2024-02-17T05:09:14.483Z,53.46
2024-02-17T05:12:20.246Z,54.04
2024-02-17T05:15:24.231Z,54.41
2024-02-17T05:18:30.441Z,54.69
2024-02-17T05:21:34.958Z,54.15
2024-02-17T05:24:39.968Z,54.64
2024-02-17T05:27:44.458Z,54.71
2024-02-17T05:30:51.670Z,54.68
2024-02-17T05:33:57.969Z,55.30
2024-02-17T05:37:02.685Z,54.96
2024-02-17T05:40:08.476Z,54.78
2024-02-17T05:43:13.319Z,55.03
2024-02-17T05:46:17.433Z,54.62
2024-02-17T05:49:24.539Z,54.83
2024-02-17T05:52:29.666Z,54.65
2024-02-17T05:55:34.149Z,54.57
2024-02-17T05:58:38.682Z,55.06
2024-02-17T06:01:47.113Z,55.23
2024-02-17T06:04:53.497Z,55.79
2024-02-17T06:07:59.266Z,56.40
2024-02-17T06:11:04.701Z,56.19
2024-02-17T06:14:08.989Z,56.07
2024-02-17T06:17:20.578Z,55.41
2024-02-17T06:20:43.787Z,55.47
2024-02-17T06:23:50.108Z,55.87
2024-02-17T06:26:54.619Z,56.12
2024-02-17T06:29:58.526Z,56.34
2024-02-17T06:33:03.076Z,56.74
2024-02-17T06:36:09.648Z,56.86
2024-02-17T06:39:14.105Z,56.30
2024-02-17T06:42:19.289Z,56.37
2024-02-17T06:45:24.703Z,57.11
2024-02-17T06:48:29.275Z,57.65
2024-02-17T06:51:38.884Z,57.31
2024-02-17T06:54:43.814Z,57.33
2024-02-17T06:57:50.414Z,58.23
2024-02-17T07:00:54.585Z,58.26
2024-02-17T07:03:59.790Z,58.52
2024-02-17T07:07:06.019Z,59.21
2024-02-17T07:10:12.917Z,58.22
2024-02-17T07:13:17.168Z,59.55
2024-02-17T07:16:21.735Z,59.78
2024-02-17T07:19:25.718Z,59.68
2024-02-17T07:22:31.859Z,58.97
2024-02-17T07:25:36.992Z,59.92
2024-02-17T07:28:41.287Z,59.96
2024-02-17T07:31:45.384Z,60.11
2024-02-17T07:34:50.037Z,60.65
2024-02-17T07:37:55.479Z,60.55
2024-02-17T07:41:00.244Z,59.88
2024-02-17T07:44:05.124Z,59.87
2024-02-17T07:47:09.649Z,59.74
2024-02-17T07:50:13.886Z,59.90
2024-02-17T07:53:19.699Z,59.73
2024-02-17T07:56:25.271Z,59.90
2024-02-17T07:59:29.455Z,59.32
2024-02-17T08:02:33.477Z,59.73
2024-02-17T08:05:38.343Z,59.79
2024-02-17T08:08:44.059Z,59.22
2024-02-17T08:11:51.009Z,59.22
2024-02-17T08:14:55.124Z,59.54
2024-02-17T08:17:59.764Z,58.92
2024-02-17T08:21:03.782Z,59.12
2024-02-17T08:24:09.889Z,59.29
2024-02-17T08:27:15.006Z,58.55
2024-02-17T08:30:19.577Z,58.41
2024-02-17T08:33:24.038Z,59.01
2024-02-17T08:36:28.882Z,58.61
2024-02-17T08:39:34.845Z,57.87
2024-02-17T08:42:39.557Z,58.07
2024-02-17T08:45:43.777Z,57.81
2024-02-17T08:48:48.815Z,57.49
2024-02-17T08:51:52.913Z,57.62
2024-02-17T08:54:58.932Z,57.46
2024-02-17T08:58:02.829Z,57.38
2024-02-17T09:01:08.238Z,56.57
2024-02-17T09:04:12.533Z,57.35
2024-02-17T09:07:16.878Z,56.52
2024-02-17T09:10:22.552Z,56.37
2024-02-17T09:13:27.137Z,56.81
2024-02-17T09:16:30.938Z,56.54
2024-02-17T09:19:35.167Z,56.79
2024-02-17T09:22:39.162Z,55.71
2024-02-17T09:25:45.516Z,56.22
2024-02-17T09:28:49.366Z,56.21
2024-02-17T09:31:53.788Z,55.92
2024-02-17T09:34:57.969Z,55.48
2024-02-17T09:38:02.172Z,55.00
2024-02-17T09:41:09.398Z,53.93
2024-02-17T09:44:13.528Z,53.93
2024-02-17T09:47:18.701Z,54.00
2024-02-17T09:50:23.152Z,52.65
2024-02-17T09:53:28.099Z,52.21
2024-02-17T09:56:34.453Z,51.25
2024-02-17T09:59:38.252Z,50.91
2024-02-17T10:02:43.093Z,51.49
2024-02-17T10:05:47.238Z,52.13
2024-02-17T10:08:52.284Z,51.34
2024-02-17T10:12:00.125Z,51.07
2024-02-17T10:15:04.862Z,50.09
2024-02-17T10:18:09.077Z,50.37
2024-02-17T10:21:14.891Z,50.91
2024-02-17T10:24:18.951Z,50.48
2024-02-17T10:27:24.871Z,50.05
2024-02-17T10:30:29.957Z,48.25
2024-02-17T10:33:34.539Z,47.80
2024-02-17T10:36:39.531Z,46.86
2024-02-17T10:39:45.586Z,46.71
2024-02-17T10:42:53.072Z,45.68
2024-02-17T10:46:01.404Z,45.25
2024-02-17T10:49:13.638Z,45.40
2024-02-17T10:52:23.160Z,45.19
2024-02-17T10:55:28.538Z,45.37
2024-02-17T10:58:38.941Z,44.93
2024-02-17T11:01:43.569Z,45.52
2024-02-17T11:04:48.864Z,44.36
2024-02-17T11:07:54.168Z,44.59
2024-02-17T11:10:59.194Z,44.37
2024-02-17T11:14:48.964Z,43.08
2024-02-17T11:17:58.813Z,44.14
2024-02-17T11:21:02.836Z,42.24
2024-02-17T11:24:10.099Z,42.63
2024-02-17T11:27:14.563Z,42.34
2024-02-17T11:30:21.914Z,42.23
2024-02-17T11:33:34.392Z,42.89
2024-02-17T11:36:42.283Z,43.17
2024-02-17T11:39:47.656Z,43.75
2024-02-17T11:42:55.692Z,42.55
2024-02-17T11:46:01.816Z,43.49
2024-02-17T11:49:12.947Z,44.13
2024-02-17T11:52:16.853Z,42.85
2024-02-17T11:55:22.028Z,42.78
2024-02-17T11:58:28.442Z,42.05
2024-02-17T12:01:38.171Z,42.42
2024-02-17T12:04:42.977Z,42.18
2024-02-17T12:07:47.769Z,42.08
2024-02-17T12:10:51.760Z,42.16
2024-02-17T12:13:56.516Z,42.12
2024-02-17T12:17:02.971Z,42.15
2024-02-17T12:20:09.584Z,42.48
2024-02-17T12:23:14.968Z,41.14
2024-02-17T12:26:32.718Z,41.98
2024-02-17T12:29:51.864Z,42.32
2024-02-17T12:33:10.476Z,41.87
2024-02-17T12:36:18.777Z,41.34
2024-02-17T12:39:26.561Z,41.92
2024-02-17T12:42:30.847Z,41.25
2024-02-17T12:45:35.391Z,40.15
2024-02-17T12:48:41.076Z,37.66
2024-02-17T12:51:51.051Z,36.93
2024-02-17T12:54:57.538Z,37.53
2024-02-17T12:58:02.602Z,38.24
2024-02-17T13:01:06.705Z,37.58
2024-02-17T13:04:13.122Z,36.62
2024-02-17T13:07:17.408Z,37.11
2024-02-17T13:10:22.713Z,36.93
2024-02-17T13:13:26.748Z,36.12
2024-02-17T13:16:31.074Z,35.09
2024-02-17T13:19:36.499Z,34.96
2024-02-17T13:22:41.274Z,35.90
2024-02-17T13:25:45.399Z,34.44
2024-02-17T13:28:49.915Z,35.02
2024-02-17T13:31:53.820Z,35.48
2024-02-17T13:35:00.032Z,34.79
2024-02-17T13:38:13.992Z,34.68
2024-02-17T13:41:26.646Z,33.61
2024-02-17T13:44:30.955Z,33.26
2024-02-17T13:47:37.065Z,33.53
2024-02-17T13:50:43.752Z,32.51
2024-02-17T13:53:48.696Z,32.62
2024-02-17T13:56:52.729Z,32.99
2024-02-17T13:59:57.404Z,32.88
2024-02-17T14:03:02.863Z,33.07
2024-02-17T14:06:09.661Z,33.75
2024-02-17T14:09:13.659Z,33.16
2024-02-17T14:12:18.718Z,32.94
2024-02-17T14:15:23.287Z,33.05
2024-02-17T14:18:29.288Z,33.22
2024-02-17T14:21:35.332Z,33.05
2024-02-17T14:24:39.883Z,33.05
2024-02-17T14:27:43.788Z,33.00
2024-02-17T14:30:50.965Z,32.40
2024-02-17T14:33:54.963Z,32.28
2024-02-17T14:37:02.130Z,31.28
2024-02-17T14:40:08.051Z,32.53
2024-02-17T14:43:12.641Z,32.41
2024-02-17T14:46:16.675Z,31.81
2024-02-17T14:49:20.962Z,32.22
2024-02-17T14:52:28.747Z,32.70
2024-02-17T14:55:32.992Z,32.52
2024-02-17T14:58:38.192Z,33.04
2024-02-17T15:01:42.532Z,32.91
2024-02-17T15:04:46.776Z,33.54
2024-02-17T15:07:53.661Z,33.37
2024-02-17T15:10:57.667Z,33.63
2024-02-17T15:14:01.877Z,33.74
2024-02-17T15:17:06.755Z,34.15
2024-02-17T15:20:11.481Z,35.15
2024-02-17T15:23:16.665Z,35.03
2024-02-17T15:26:21.499Z,35.42
2024-02-17T15:29:25.245Z,35.30
2024-02-17T15:32:30.140Z,34.53
2024-02-17T15:35:34.346Z,34.85
2024-02-17T15:38:39.933Z,35.13
2024-02-17T15:41:43.797Z,35.09
2024-02-17T15:44:49.520Z,35.21
2024-02-17T15:47:57.050Z,35.55
2024-02-17T15:51:01.786Z,35.82
2024-02-17T15:54:07.588Z,36.30
2024-02-17T15:57:11.727Z,36.50
2024-02-17T16:00:20.282Z,36.83
2024-02-17T16:03:30.265Z,37.07
2024-02-17T16:06:34.774Z,37.89
2024-02-17T16:09:40.598Z,38.29
2024-02-17T16:12:45.922Z,38.38
2024-02-17T16:15:50.327Z,38.83
2024-02-17T16:18:54.397Z,39.13
2024-02-17T16:21:59.876Z,39.38
2024-02-17T16:25:05.707Z,39.84
2024-02-17T16:28:10.202Z,40.14
2024-02-17T16:31:14.143Z,40.82
2024-02-17T16:34:18.722Z,41.46
2024-02-17T16:37:22.745Z,41.26
2024-02-17T16:40:28.982Z,41.53
2024-02-17T16:43:33.121Z,41.66
2024-02-17T16:46:37.670Z,42.07
2024-02-17T16:49:41.863Z,42.60
2024-02-17T16:52:46.367Z,43.40
2024-02-17T16:55:52.210Z,44.11
2024-02-17T16:58:56.720Z,44.40
2024-02-17T17:02:01.180Z,44.53
2024-02-17T17:05:06.705Z,44.80
2024-02-17T17:08:11.173Z,45.09
2024-02-17T17:11:22.638Z,44.99
2024-02-17T17:14:26.578Z,45.01
2024-02-17T17:17:31.264Z,45.74
2024-02-17T17:20:35.343Z,45.71
2024-02-17T17:23:39.719Z,46.24
2024-02-17T17:26:50.583Z,46.12
2024-02-17T17:29:55.295Z,46.67
2024-02-17T17:32:59.291Z,46.47
2024-02-17T17:36:05.243Z,46.83
2024-02-17T17:39:08.951Z,46.62
2024-02-17T17:42:14.699Z,46.98
2024-02-17T17:45:20.002Z,46.91
2024-02-17T17:48:27.081Z,47.31
2024-02-17T17:51:33.466Z,47.81
2024-02-17T17:54:38.978Z,48.14
2024-02-17T17:57:44.618Z,48.78
2024-02-17T18:00:49.474Z,48.90
2024-02-17T18:03:54.676Z,48.17
2024-02-17T18:06:59.143Z,48.04
2024-02-17T18:10:03.594Z,47.68
2024-02-17T18:13:10.826Z,47.99
2024-02-17T18:16:18.702Z,48.26
2024-02-17T18:19:24.037Z,49.17
2024-02-17T18:22:28.493Z,49.28
2024-02-17T18:25:32.791Z,48.63
2024-02-17T18:28:38.069Z,48.75
2024-02-17T18:31:42.681Z,49.23
2024-02-17T18:34:46.597Z,49.09
2024-02-17T18:37:50.951Z,49.04
2024-02-17T18:40:54.754Z,49.17
2024-02-17T18:44:10.932Z,50.50
2024-02-17T18:47:17.011Z,50.57
2024-02-17T18:50:22.671Z,50.47
2024-02-17T18:53:26.562Z,50.09
2024-02-17T18:56:31.066Z,50.11
2024-02-17T18:59:38.161Z,50.47
2024-02-17T19:02:44.903Z,50.31
2024-02-17T19:05:48.841Z,51.90
2024-02-17T19:08:53.617Z,51.66
2024-02-17T19:11:57.938Z,51.95
2024-02-17T19:15:05.090Z,51.13
2024-02-17T19:18:09.377Z,51.06
2024-02-17T19:21:14.345Z,51.10
2024-02-17T19:24:18.695Z,52.28
2024-02-17T19:27:24.201Z,51.56
2024-02-17T19:30:29.805Z,51.60
2024-02-17T19:33:34.983Z,51.94
2024-02-17T19:36:39.071Z,51.93
2024-02-17T19:39:43.690Z,51.36
2024-02-17T19:42:49.534Z,51.17
2024-02-17T19:45:55.505Z,51.36
2024-02-17T19:49:00.472Z,52.09
2024-02-17T19:52:06.934Z,52.79
2024-02-17T19:55:11.619Z,52.93
2024-02-17T19:58:15.941Z,52.86
2024-02-17T20:01:23.644Z,52.46
2024-02-17T20:04:29.185Z,52.21
2024-02-17T20:07:33.083Z,52.18
2024-02-17T20:10:37.236Z,52.29
2024-02-17T20:13:43.108Z,52.36
2024-02-17T20:16:52.485Z,53.29
2024-02-17T20:19:56.438Z,52.79
2024-02-17T20:23:01.389Z,53.16
2024-02-17T20:26:05.535Z,52.99
2024-02-17T20:29:09.971Z,52.94
2024-02-17T20:32:15.288Z,52.17
2024-02-17T20:35:19.894Z,51.84
2024-02-17T20:38:24.250Z,52.26
2024-02-17T20:41:28.473Z,52.75
2024-02-17T20:44:33.061Z,52.52
2024-02-17T20:47:39.565Z,53.73
2024-02-17T20:50:44.533Z,52.56
2024-02-17T20:53:49.510Z,53.16
2024-02-17T20:56:53.823Z,53.47
2024-02-17T20:59:58.085Z,53.88
2024-02-17T21:03:03.760Z,53.99
2024-02-17T21:06:08.357Z,53.62
2024-02-17T21:09:12.189Z,54.00
2024-02-17T21:12:16.684Z,53.68
2024-02-17T21:15:20.532Z,54.28
2024-02-17T21:18:26.498Z,54.59
2024-02-17T21:21:31.815Z,53.97
2024-02-17T21:24:36.324Z,53.35
2024-02-17T21:27:40.105Z,54.65
2024-02-17T21:30:44.478Z,55.14
2024-02-17T21:33:50.121Z,54.53
2024-02-17T21:36:54.757Z,54.79
2024-02-17T21:40:01.556Z,54.48
2024-02-17T21:43:06.448Z,54.90
2024-02-17T21:46:14.435Z,55.94
2024-02-17T21:49:20.517Z,55.46
2024-02-17T21:52:27.156Z,55.16
2024-02-17T21:55:31.473Z,55.59
2024-02-17T21:58:35.165Z,56.00
2024-02-17T22:01:42.422Z,54.67
2024-02-17T22:04:50.968Z,55.04
2024-02-17T22:07:55.753Z,54.22
2024-02-17T22:11:00.036Z,54.99
2024-02-17T22:14:04.510Z,54.22
2024-02-17T22:17:08.267Z,54.39
2024-02-17T22:20:15.533Z,54.44
2024-02-17T22:23:23.108Z,54.14
2024-02-17T22:26:28.747Z,54.13
2024-02-17T22:29:33.599Z,54.85
2024-02-17T22:32:38.290Z,55.33
2024-02-17T22:35:44.325Z,55.92
2024-02-17T22:38:48.400Z,55.61
2024-02-17T22:41:54.024Z,56.30
2024-02-17T22:44:58.942Z,55.49
2024-02-17T22:48:03.972Z,56.39
2024-02-17T22:51:09.703Z,57.03
2024-02-17T22:54:14.556Z,58.88
2024-02-17T22:57:19.075Z,58.00
2024-02-17T23:00:23.545Z,58.26
2024-02-17T23:03:28.191Z,57.84
2024-02-17T23:06:35.511Z,57.44
2024-02-17T23:09:39.859Z,56.72
2024-02-17T23:12:43.924Z,57.57
2024-02-17T23:15:48.317Z,58.19
2024-02-17T23:18:52.669Z,58.48
2024-02-17T23:21:58.770Z,59.68
2024-02-17T23:25:02.951Z,60.72
2024-02-17T23:28:07.641Z,59.94
2024-02-17T23:31:11.598Z,58.95
2024-02-17T23:34:16.801Z,58.22
2024-02-17T23:37:23.671Z,57.54
2024-02-17T23:40:28.731Z,57.83
2024-02-17T23:43:32.787Z,57.42
2024-02-17T23:46:37.112Z,57.23
2024-02-17T23:49:42.615Z,57.09
2024-02-17T23:52:49.595Z,56.90
2024-02-17T23:55:53.939Z,56.87
2024-02-17T23:58:58.605Z,56.53
